Time;durP1;ratioP1;P1;durP2;ratioP2;P2;SDS_P1;SDS_P2;PMS_P1;PMS_P2;Temp;Humidity;BMP_temperature;BMP_pressure;BME280_temperature;BME280_humidity;BME280_pressure;Samples;Min_cycle;Max_cycle;Signal;HPM_P1;HPM_P2
2023/01/18 00:00:39;;;;;;;21.63;11.67;;;0.30;99.90;;;;;;4979323;28;20203;-76
2023/01/18 00:03:07;;;;;;;21.17;11.27;;;0.40;99.90;;;;;;4987407;28;20211;-75
2023/01/18 00:05:39;;;;;;;15.27;8.77;;;0.40;99.90;;;;;;4976549;28;20212;-75
2023/01/18 00:08:08;;;;;;;19.70;10.10;;;0.40;99.90;;;;;;4966552;28;20189;-75
2023/01/18 00:10:34;;;;;;;15.70;8.77;;;0.40;99.90;;;;;;4973933;28;20596;-76
2023/01/18 00:12:59;;;;;;;12.93;8.47;;;0.40;99.90;;;;;;4990761;28;20271;-75
2023/01/18 00:15:25;;;;;;;15.60;9.30;;;0.30;99.90;;;;;;4985720;28;20226;-75
2023/01/18 00:17:51;;;;;;;9.07;8.13;;;0.30;99.90;;;;;;4980993;28;20200;-75
2023/01/18 00:20:22;;;;;;;14.00;8.90;;;0.30;99.90;;;;;;4984860;28;20218;-75
2023/01/18 00:22:48;;;;;;;12.03;8.27;;;0.30;99.90;;;;;;4983695;28;20926;-75
2023/01/18 00:25:15;;;;;;;10.03;7.80;;;0.30;99.90;;;;;;4977158;28;20358;-75
2023/01/18 00:27:47;;;;;;;7.97;7.20;;;0.30;99.90;;;;;;4975620;28;20181;-75
2023/01/18 00:30:16;;;;;;;13.43;7.83;;;0.30;99.90;;;;;;4990253;28;20216;-76
2023/01/18 00:32:42;;;;;;;9.37;6.60;;;0.30;99.90;;;;;;4977562;28;20275;-75
2023/01/18 00:35:08;;;;;;;10.03;7.97;;;0.30;99.90;;;;;;4964122;28;20294;-75
2023/01/18 00:37:35;;;;;;;11.20;8.73;;;0.20;99.90;;;;;;4978323;28;20200;-75
2023/01/18 00:40:02;;;;;;;9.30;7.87;;;0.30;99.90;;;;;;4994962;28;20188;-75
2023/01/18 00:45:12;;;;;;;6.23;5.73;;;0.30;99.90;;;;;;4983666;28;20223;-75
2023/01/18 00:47:38;;;;;;;9.77;8.77;;;0.30;99.90;;;;;;4980195;28;20196;-75
2023/01/18 00:50:04;;;;;;;13.27;7.10;;;0.30;99.90;;;;;;4985616;28;20192;-76
2023/01/18 00:52:30;;;;;;;8.40;7.20;;;0.30;99.90;;;;;;4961240;28;20204;-76
2023/01/18 00:54:55;;;;;;;8.93;7.23;;;0.30;99.90;;;;;;4976446;28;20227;-75
2023/01/18 00:57:21;;;;;;;10.97;7.70;;;0.30;99.90;;;;;;4983366;28;20588;-75
2023/01/18 00:59:47;;;;;;;11.33;8.53;;;0.30;99.90;;;;;;4982863;28;20267;-75
2023/01/18 01:02:13;;;;;;;7.70;6.53;;;0.20;99.90;;;;;;4974394;28;20192;-76
2023/01/18 01:07:23;;;;;;;9.73;7.77;;;0.20;99.90;;;;;;4975404;28;20220;-76
2023/01/18 01:09:49;;;;;;;8.17;7.37;;;0.20;99.90;;;;;;4992774;28;20189;-75
2023/01/18 01:26:07;;;;;;;8.70;6.63;;;0.10;99.90;;;;;;4985924;28;20211;-75
2023/01/18 01:28:40;;;;;;;7.40;6.60;;;0.10;99.90;;;;;;4983663;28;20185;-76
2023/01/18 01:31:08;;;;;;;7.37;6.50;;;0.10;99.90;;;;;;4988434;28;20188;-75
2023/01/18 01:33:35;;;;;;;8.90;7.40;;;0.00;99.90;;;;;;4989835;28;20283;-76
2023/01/18 01:36:06;;;;;;;7.63;6.63;;;0.00;99.90;;;;;;4986984;28;20216;-75
2023/01/18 01:38:32;;;;;;;13.73;7.40;;;0.00;99.90;;;;;;4989165;28;20188;-75
2023/01/18 01:41:04;;;;;;;13.03;7.03;;;0.00;99.90;;;;;;4974187;28;20295;-76
2023/01/18 01:43:49;;;;;;;8.20;7.37;;;0.00;99.90;;;;;;4975252;28;20193;-75
2023/01/18 01:46:18;;;;;;;13.53;7.20;;;-0.10;99.90;;;;;;4975463;28;20204;-75
2023/01/18 01:48:45;;;;;;;13.10;6.50;;;-0.10;99.90;;;;;;4986055;28;20192;-76
2023/01/18 01:51:11;;;;;;;12.53;9.63;;;-0.10;99.90;;;;;;4972020;28;20185;-76
2023/01/18 01:53:37;;;;;;;10.17;7.67;;;-0.10;99.90;;;;;;4975681;28;20535;-76
2023/01/18 01:56:03;;;;;;;9.63;7.70;;;-0.10;99.90;;;;;;4982639;28;20592;-76
2023/01/18 01:58:30;;;;;;;15.77;10.00;;;-0.10;99.90;;;;;;4980599;28;20184;-76
2023/01/18 02:00:56;;;;;;;10.83;8.67;;;-0.10;99.90;;;;;;4979033;28;20192;-75
2023/01/18 02:03:24;;;;;;;11.93;9.27;;;-0.10;99.90;;;;;;4981347;28;21072;-75
2023/01/18 02:05:54;;;;;;;14.70;9.63;;;-0.20;99.90;;;;;;4979569;28;20189;-75
2023/01/18 02:08:23;;;;;;;14.70;10.13;;;-0.20;99.90;;;;;;4981727;28;20192;-75
2023/01/18 02:10:50;;;;;;;15.13;7.93;;;-0.20;99.90;;;;;;4976373;28;20653;-75
2023/01/18 02:13:18;;;;;;;11.93;10.73;;;-0.30;99.90;;;;;;4975169;28;20216;-76
2023/01/18 02:16:12;;;;;;;15.67;9.47;;;-0.30;99.90;;;;;;4985378;28;20254;-75
2023/01/18 02:18:56;;;;;;;14.27;9.37;;;-0.30;99.90;;;;;;4979318;28;20202;-75
2023/01/18 02:21:29;;;;;;;17.33;9.33;;;-0.30;99.90;;;;;;4985068;28;20199;-75
2023/01/18 02:24:13;;;;;;;15.63;12.03;;;-0.40;99.90;;;;;;4987079;28;20190;-75
2023/01/18 02:27:02;;;;;;;13.83;9.50;;;-0.40;99.90;;;;;;4973993;28;20550;-75
2023/01/18 02:29:39;;;;;;;18.57;11.43;;;-0.40;99.90;;;;;;4979053;28;20203;-75
2023/01/18 02:32:24;;;;;;;11.83;10.67;;;-0.40;99.90;;;;;;4980243;28;20710;-76
2023/01/18 02:35:04;;;;;;;12.33;8.90;;;-0.40;99.90;;;;;;4978672;28;20208;-75
2023/01/18 02:37:53;;;;;;;12.13;9.63;;;-0.50;99.90;;;;;;4979537;28;20195;-75
2023/01/18 02:40:44;;;;;;;15.60;8.33;;;-0.50;99.90;;;;;;4975280;28;20185;-76
2023/01/18 02:48:45;;;;;;;16.63;10.40;;;-0.30;99.90;;;;;;4976905;28;20213;-76
2023/01/18 02:51:11;;;;;;;17.87;8.60;;;-0.40;99.90;;;;;;4970153;28;20191;-76
2023/01/18 02:53:39;;;;;;;12.53;9.37;;;-0.30;99.90;;;;;;4990883;28;20200;-75
2023/01/18 02:56:25;;;;;;;15.57;9.50;;;-0.30;99.90;;;;;;4990792;28;20219;-75
2023/01/18 02:59:17;;;;;;;15.60;9.10;;;-0.30;99.90;;;;;;4977367;28;20197;-76
2023/01/18 03:01:45;;;;;;;13.63;9.73;;;-0.20;99.90;;;;;;4974144;28;20177;-75
2023/01/18 03:04:19;;;;;;;15.40;9.20;;;-0.10;99.90;;;;;;4988148;28;20239;-76
2023/01/18 03:06:50;;;;;;;14.00;9.30;;;-0.20;99.90;;;;;;4973891;28;20181;-75
2023/01/18 03:09:17;;;;;;;10.67;9.67;;;-0.20;99.90;;;;;;4983915;28;20180;-75
2023/01/18 03:11:54;;;;;;;15.60;9.83;;;-0.30;99.90;;;;;;4974541;28;20220;-75
2023/01/18 03:14:24;;;;;;;8.90;8.07;;;-0.30;99.90;;;;;;4982873;28;20184;-75
2023/01/18 03:16:59;;;;;;;15.00;9.80;;;-0.40;99.90;;;;;;4988497;28;20215;-75
2023/01/18 03:22:14;;;;;;;11.83;8.73;;;-0.50;99.90;;;;;;4980394;28;20195;-75
2023/01/18 03:24:41;;;;;;;17.40;9.43;;;-0.50;99.90;;;;;;4975141;28;20195;-75
2023/01/18 03:35:26;;;;;;;10.07;9.07;;;-0.50;99.90;;;;;;4973091;28;20251;-75
2023/01/18 03:37:54;;;;;;;9.83;8.20;;;-0.50;99.90;;;;;;4980801;28;20184;-75
2023/01/18 03:40:24;;;;;;;11.33;9.80;;;-0.50;99.90;;;;;;4981769;28;20584;-74
2023/01/18 03:42:56;;;;;;;11.60;9.90;;;-0.40;99.90;;;;;;4991174;28;20188;-75
2023/01/18 03:45:29;;;;;;;14.47;10.30;;;-0.40;99.90;;;;;;4980799;28;20177;-75
2023/01/18 03:47:55;;;;;;;9.83;8.67;;;-0.40;99.90;;;;;;4977292;28;20282;-75
2023/01/18 03:50:27;;;;;;;9.73;8.83;;;-0.40;99.90;;;;;;4990789;28;20331;-74
2023/01/18 03:52:57;;;;;;;14.57;9.47;;;-0.30;99.90;;;;;;4981949;28;20228;-74
2023/01/18 03:55:30;;;;;;;10.43;8.17;;;-0.20;99.90;;;;;;4980371;28;20212;-74
2023/01/18 03:58:08;;;;;;;15.50;9.67;;;-0.30;99.90;;;;;;4984825;28;20192;-74
2023/01/18 04:00:35;;;;;;;11.90;9.33;;;-0.20;99.90;;;;;;4990458;28;20192;-75
2023/01/18 04:03:00;;;;;;;13.47;8.57;;;-0.20;99.90;;;;;;4975870;28;20196;-75
2023/01/18 04:05:27;;;;;;;10.07;8.73;;;-0.20;99.90;;;;;;4991634;28;20211;-75
2023/01/18 04:07:52;;;;;;;11.83;9.13;;;-0.10;99.90;;;;;;4986056;28;20223;-74
2023/01/18 04:10:18;;;;;;;11.20;8.47;;;-0.10;99.90;;;;;;4980341;28;20193;-74
2023/01/18 04:12:43;;;;;;;13.90;8.63;;;-0.10;99.90;;;;;;4984270;28;20188;-75
2023/01/18 04:15:10;;;;;;;11.83;8.87;;;-0.20;99.90;;;;;;4980418;28;20208;-75
2023/01/18 04:17:35;;;;;;;9.53;8.57;;;-0.30;99.90;;;;;;4987079;28;20315;-75
2023/01/18 04:20:02;;;;;;;10.83;8.23;;;-0.20;99.90;;;;;;4977664;28;20227;-74
2023/01/18 04:22:27;;;;;;;11.43;8.97;;;-0.20;99.90;;;;;;4974884;28;20184;-74
2023/01/18 04:24:53;;;;;;;17.63;9.97;;;-0.20;99.90;;;;;;4970358;28;20196;-74
2023/01/18 04:27:19;;;;;;;18.00;9.60;;;-0.20;99.90;;;;;;4975322;28;20192;-74
2023/01/18 04:29:44;;;;;;;10.47;8.60;;;-0.20;99.90;;;;;;4990483;28;20195;-75
2023/01/18 04:32:10;;;;;;;13.13;9.53;;;-0.20;99.90;;;;;;4992648;28;20219;-74
2023/01/18 04:34:36;;;;;;;9.80;7.67;;;-0.30;99.90;;;;;;4994887;28;20191;-74
2023/01/18 04:37:02;;;;;;;11.37;9.57;;;-0.10;99.90;;;;;;4979244;28;20201;-75
2023/01/18 04:39:27;;;;;;;11.33;8.23;;;-0.20;99.90;;;;;;4977201;28;20188;-75
2023/01/18 04:41:53;;;;;;;25.07;9.57;;;-0.40;99.90;;;;;;4976389;28;20238;-74
2023/01/18 04:44:19;;;;;;;12.20;8.33;;;-0.40;99.90;;;;;;4978660;28;20199;-75
2023/01/18 04:46:46;;;;;;;15.80;7.37;;;-0.50;99.90;;;;;;4977417;28;20204;-74
2023/01/18 04:49:14;;;;;;;9.30;7.93;;;-0.50;99.90;;;;;;4986643;28;20184;-74
2023/01/18 04:51:41;;;;;;;8.03;6.73;;;-0.50;99.90;;;;;;4968081;28;20204;-74
2023/01/18 04:54:07;;;;;;;12.87;9.57;;;-0.50;99.90;;;;;;4976725;28;20689;-74
2023/01/18 04:56:33;;;;;;;8.80;7.87;;;-0.50;99.90;;;;;;4975226;28;20212;-74
2023/01/18 04:58:59;;;;;;;11.47;8.40;;;-0.50;99.90;;;;;;4993087;28;20204;-74
2023/01/18 05:01:25;;;;;;;10.23;7.03;;;-0.30;99.90;;;;;;4985997;28;20271;-74
2023/01/18 05:03:52;;;;;;;9.17;7.83;;;-0.20;99.90;;;;;;4994346;28;20278;-74
2023/01/18 05:06:21;;;;;;;12.40;8.80;;;-0.20;99.90;;;;;;4977378;28;20563;-74
2023/01/18 05:08:47;;;;;;;8.13;7.30;;;-0.10;99.90;;;;;;4975864;28;20196;-74
2023/01/18 05:11:15;;;;;;;9.97;7.37;;;-0.10;99.90;;;;;;4974942;28;20271;-74
2023/01/18 05:13:41;;;;;;;12.47;8.60;;;-0.10;99.90;;;;;;4977057;28;20187;-74
2023/01/18 05:16:13;;;;;;;9.93;7.50;;;-0.20;99.90;;;;;;4987563;28;20247;-73
2023/01/18 05:18:39;;;;;;;10.63;7.77;;;-0.20;99.90;;;;;;4980485;28;20200;-74
2023/01/18 05:21:05;;;;;;;15.20;8.27;;;-0.30;99.90;;;;;;4975885;28;20295;-74
2023/01/18 05:23:30;;;;;;;11.00;9.00;;;-0.30;99.90;;;;;;4978688;28;20267;-74
2023/01/18 05:25:57;;;;;;;11.30;8.80;;;-0.30;99.90;;;;;;4978729;28;20646;-74
2023/01/18 05:28:25;;;;;;;6.33;5.77;;;-0.20;99.90;;;;;;4984623;28;20239;-73
2023/01/18 05:30:53;;;;;;;8.30;7.23;;;-0.30;99.90;;;;;;4992157;28;20270;-74
2023/01/18 05:33:20;;;;;;;10.40;7.43;;;-0.30;99.90;;;;;;4975555;28;20593;-74
2023/01/18 05:35:50;;;;;;;10.17;8.57;;;-0.40;99.90;;;;;;4993450;28;20223;-73
2023/01/18 05:38:17;;;;;;;8.03;6.07;;;-0.50;99.90;;;;;;4989798;28;20671;-74
2023/01/18 05:40:44;;;;;;;10.77;9.03;;;-0.50;99.90;;;;;;4986663;28;20188;-74
2023/01/18 05:43:11;;;;;;;11.37;8.13;;;-0.10;99.90;;;;;;4979541;28;20195;-73
2023/01/18 05:45:37;;;;;;;10.27;8.17;;;0.20;99.90;;;;;;4991299;28;20202;-73
2023/01/18 05:48:02;;;;;;;8.57;7.77;;;0.20;99.90;;;;;;4993224;28;20188;-74
2023/01/18 05:50:28;;;;;;;19.20;8.53;;;0.10;99.90;;;;;;4952925;28;20192;-74
2023/01/18 05:52:56;;;;;;;16.23;9.40;;;-0.10;99.90;;;;;;4990354;28;20201;-74
2023/01/18 05:55:22;;;;;;;8.90;6.53;;;-0.20;99.90;;;;;;4987013;28;20208;-74
2023/01/18 05:57:47;;;;;;;17.50;11.57;;;-0.10;99.90;;;;;;4978510;28;20196;-73
2023/01/18 06:00:13;;;;;;;12.13;9.53;;;-0.20;99.90;;;;;;4963064;28;20200;-73
2023/01/18 06:02:39;;;;;;;12.43;9.43;;;-0.30;99.90;;;;;;4986017;28;20188;-74
2023/01/18 06:05:05;;;;;;;18.60;10.43;;;-0.20;99.90;;;;;;4973753;28;20207;-74
2023/01/18 06:07:31;;;;;;;14.07;8.40;;;-0.30;99.90;;;;;;4975134;28;20685;-73
2023/01/18 06:09:57;;;;;;;14.27;7.63;;;-0.30;99.90;;;;;;4975736;28;20323;-73
2023/01/18 06:12:23;;;;;;;7.80;6.33;;;-0.20;99.90;;;;;;4986055;28;20646;-73
2023/01/18 06:14:49;;;;;;;11.10;9.37;;;0.00;99.90;;;;;;4976157;28;20193;-73
2023/01/18 06:17:15;;;;;;;13.30;9.97;;;-0.10;99.90;;;;;;4984303;28;20192;-73
2023/01/18 06:19:40;;;;;;;10.17;8.03;;;-0.10;99.90;;;;;;4972114;28;20197;-73
2023/01/18 06:22:07;;;;;;;17.33;10.70;;;-0.10;99.90;;;;;;4983753;28;20196;-73
2023/01/18 06:24:32;;;;;;;15.40;9.63;;;0.00;99.90;;;;;;4992653;28;20207;-73
2023/01/18 06:26:59;;;;;;;9.53;8.00;;;0.00;99.90;;;;;;4989993;28;20247;-73
2023/01/18 06:29:25;;;;;;;10.77;7.97;;;0.10;99.90;;;;;;4993081;28;20279;-73
2023/01/18 06:31:51;;;;;;;10.53;9.53;;;0.10;99.90;;;;;;4961265;28;20200;-74
2023/01/18 06:34:17;;;;;;;12.67;8.20;;;-0.10;99.90;;;;;;4974736;28;20547;-73
2023/01/18 06:36:44;;;;;;;9.07;8.17;;;-0.10;99.90;;;;;;4962912;28;20271;-73
2023/01/18 06:39:10;;;;;;;10.00;7.57;;;-0.30;99.90;;;;;;4973804;28;20199;-73
2023/01/18 06:41:35;;;;;;;9.13;7.83;;;-0.30;99.90;;;;;;4989501;28;20338;-74
2023/01/18 06:44:01;;;;;;;10.20;8.40;;;-0.30;99.90;;;;;;4975670;28;20712;-73
2023/01/18 06:46:27;;;;;;;15.20;9.10;;;-0.30;99.90;;;;;;4974510;28;20192;-73
2023/01/18 06:48:53;;;;;;;10.77;9.40;;;-0.20;99.90;;;;;;4977532;28;20184;-73
2023/01/18 06:51:20;;;;;;;13.30;8.97;;;0.00;99.90;;;;;;4987538;28;20247;-73
2023/01/18 06:53:46;;;;;;;19.67;9.43;;;0.10;99.90;;;;;;4974236;28;20192;-72
2023/01/18 06:56:13;;;;;;;16.90;9.00;;;0.00;99.90;;;;;;4982617;28;20242;-73
2023/01/18 06:58:39;;;;;;;9.37;8.37;;;-0.10;99.90;;;;;;4973733;28;20306;-72
2023/01/18 07:01:05;;;;;;;20.23;11.93;;;-0.10;99.90;;;;;;4978407;28;20747;-72
2023/01/18 07:03:31;;;;;;;9.67;8.07;;;-0.10;99.90;;;;;;4974127;28;20280;-73
2023/01/18 07:05:59;;;;;;;11.53;9.50;;;0.10;99.90;;;;;;4985115;28;20227;-72
2023/01/18 07:08:26;;;;;;;10.57;8.70;;;0.00;99.90;;;;;;4981272;28;20263;-73
2023/01/18 07:10:53;;;;;;;11.83;8.57;;;0.00;99.90;;;;;;4981365;28;20188;-72
2023/01/18 07:13:19;;;;;;;14.57;10.03;;;0.10;99.90;;;;;;4972863;28;20183;-72
2023/01/18 07:15:50;;;;;;;25.50;9.93;;;0.00;99.90;;;;;;4973008;28;20220;-72
2023/01/18 07:18:16;;;;;;;11.50;9.13;;;-0.20;99.90;;;;;;4979525;28;20203;-72
2023/01/18 07:20:42;;;;;;;17.23;12.13;;;-0.30;99.90;;;;;;4976616;28;20185;-72
2023/01/18 07:23:07;;;;;;;14.40;9.53;;;-0.10;99.90;;;;;;4977627;28;20212;-72
2023/01/18 07:25:33;;;;;;;16.83;12.90;;;0.30;99.90;;;;;;4987720;28;20199;-71
2023/01/18 07:27:59;;;;;;;14.37;9.77;;;0.50;99.90;;;;;;4982497;28;20490;-72
2023/01/18 07:30:24;;;;;;;26.47;12.60;;;0.70;99.90;;;;;;4985231;28;21541;-72
2023/01/18 07:32:52;;;;;;;12.47;9.37;;;0.60;99.90;;;;;;4979621;28;20637;-72
2023/01/18 07:35:21;;;;;;;13.17;9.57;;;0.40;99.90;;;;;;4991526;28;20312;-72
2023/01/18 07:37:48;;;;;;;13.80;12.30;;;0.30;99.90;;;;;;5006326;28;20227;-72
2023/01/18 07:40:14;;;;;;;13.90;10.13;;;0.50;99.90;;;;;;4988099;28;20200;-72
2023/01/18 07:42:40;;;;;;;17.63;11.83;;;0.50;99.90;;;;;;4986110;28;20252;-72
2023/01/18 07:45:07;;;;;;;14.67;12.87;;;0.50;99.90;;;;;;4976078;28;20200;-72
2023/01/18 07:47:34;;;;;;;14.13;12.13;;;0.40;99.90;;;;;;4972565;28;20177;-72
2023/01/18 07:50:00;;;;;;;14.73;10.90;;;0.40;99.90;;;;;;4987460;28;20536;-72
2023/01/18 07:52:26;;;;;;;16.93;10.47;;;0.50;99.90;;;;;;4984379;28;20217;-72
2023/01/18 07:54:51;;;;;;;12.97;9.87;;;0.40;99.90;;;;;;4979878;28;20199;-71
2023/01/18 07:57:17;;;;;;;12.60;11.27;;;0.20;99.90;;;;;;4969789;28;20727;-72
2023/01/18 07:59:43;;;;;;;18.27;9.90;;;0.40;99.90;;;;;;4973736;28;20193;-72
2023/01/18 08:02:12;;;;;;;12.93;11.50;;;0.50;99.90;;;;;;4978596;28;20180;-71
2023/01/18 08:04:38;;;;;;;11.57;10.23;;;0.60;99.90;;;;;;4984870;28;20649;-71
2023/01/18 08:07:04;;;;;;;12.33;10.57;;;0.80;99.90;;;;;;4987518;28;20556;-72
2023/01/18 08:09:32;;;;;;;20.37;11.87;;;0.60;99.90;;;;;;4972295;28;20549;-72
2023/01/18 08:12:01;;;;;;;12.73;10.27;;;0.40;99.90;;;;;;4979813;28;20191;-72
2023/01/18 08:14:27;;;;;;;13.63;9.77;;;0.20;99.90;;;;;;4973186;28;20192;-71
2023/01/18 08:16:53;;;;;;;17.07;12.50;;;0.30;99.90;;;;;;4987806;28;20569;-71
2023/01/18 08:19:18;;;;;;;18.60;11.93;;;0.60;99.90;;;;;;4989753;28;20200;-72
2023/01/18 08:21:46;;;;;;;14.70;10.27;;;0.90;99.90;;;;;;4961133;28;20270;-72
2023/01/18 08:24:12;;;;;;;16.47;10.77;;;1.00;99.90;;;;;;4973367;28;20535;-72
2023/01/18 08:26:38;;;;;;;17.27;12.77;;;0.70;99.90;;;;;;4959294;28;20202;-72
2023/01/18 08:29:05;;;;;;;21.60;11.13;;;0.70;99.90;;;;;;4980431;28;20200;-79
2023/01/18 08:31:31;;;;;;;15.23;10.80;;;0.70;99.90;;;;;;4984513;28;20210;-74
2023/01/18 08:33:56;;;;;;;20.63;12.27;;;0.80;99.90;;;;;;4976635;28;20193;-73
2023/01/18 08:36:24;;;;;;;20.27;13.30;;;1.10;99.90;;;;;;4984636;28;20212;-73
2023/01/18 08:38:52;;;;;;;14.97;11.00;;;1.00;99.90;;;;;;4977304;28;20631;-73
2023/01/18 08:41:18;;;;;;;15.40;11.57;;;1.10;99.90;;;;;;4986012;28;20644;-73
2023/01/18 08:43:49;;;;;;;21.30;13.63;;;1.10;99.90;;;;;;4991491;28;20214;-75
2023/01/18 08:46:15;;;;;;;20.27;10.83;;;1.10;99.90;;;;;;4982113;28;20624;-73
2023/01/18 08:48:42;;;;;;;14.53;11.73;;;0.90;99.90;;;;;;4991162;28;20189;-73
2023/01/18 08:51:08;;;;;;;14.73;11.23;;;0.70;99.90;;;;;;4983748;28;20187;-75
2023/01/18 08:53:34;;;;;;;19.17;12.40;;;0.80;99.90;;;;;;4992364;28;20204;-73
2023/01/18 08:56:04;;;;;;;15.73;10.77;;;0.90;99.90;;;;;;4977584;28;20248;-72
2023/01/18 08:58:31;;;;;;;19.53;12.83;;;1.00;99.90;;;;;;4979925;28;20191;-72
2023/01/18 09:00:57;;;;;;;16.63;11.07;;;1.10;99.90;;;;;;4983791;28;20266;-73
2023/01/18 09:03:23;;;;;;;16.47;11.30;;;1.10;99.90;;;;;;4981828;28;20707;-72
2023/01/18 09:05:49;;;;;;;17.23;10.40;;;1.10;99.90;;;;;;4988504;28;20187;-72
2023/01/18 09:08:16;;;;;;;18.83;12.07;;;1.10;99.90;;;;;;4988491;28;20287;-74
2023/01/18 09:10:43;;;;;;;16.80;10.87;;;1.20;99.90;;;;;;4989961;28;20600;-72
2023/01/18 09:13:09;;;;;;;15.67;11.37;;;1.30;99.90;;;;;;4976068;28;20267;-72
2023/01/18 09:15:36;;;;;;;20.60;10.80;;;1.40;99.90;;;;;;4983987;28;20212;-69
2023/01/18 09:18:05;;;;;;;21.10;11.77;;;1.60;99.90;;;;;;4987371;28;20200;-72
2023/01/18 09:20:32;;;;;;;15.10;10.40;;;1.60;99.90;;;;;;4989487;28;20587;-72
2023/01/18 09:23:01;;;;;;;15.43;9.27;;;1.60;99.90;;;;;;4977700;28;20199;-70
2023/01/18 09:25:27;;;;;;;13.10;11.10;;;1.50;99.90;;;;;;4976493;28;20644;-73
2023/01/18 09:27:53;;;;;;;14.73;10.27;;;1.50;99.90;;;;;;4983709;28;20193;-72
2023/01/18 09:30:18;;;;;;;14.60;9.70;;;1.50;99.90;;;;;;4978445;28;20268;-73
2023/01/18 09:32:44;;;;;;;13.90;10.53;;;1.40;99.90;;;;;;4975328;28;20196;-72
2023/01/18 09:35:10;;;;;;;12.07;10.33;;;1.50;99.90;;;;;;4975061;28;20219;-73
2023/01/18 09:37:36;;;;;;;14.23;10.47;;;1.50;99.90;;;;;;4966722;28;20721;-73
2023/01/18 09:40:02;;;;;;;21.30;11.47;;;1.60;99.90;;;;;;4975371;28;20200;-73
2023/01/18 09:42:36;;;;;;;16.33;11.03;;;1.70;99.90;;;;;;4992562;28;20184;-72
2023/01/18 09:45:03;;;;;;;20.50;12.17;;;1.60;99.90;;;;;;4981816;28;20219;-70
2023/01/18 09:47:43;;;;;;;16.97;11.23;;;1.50;99.90;;;;;;4987902;28;20224;-70
2023/01/18 09:50:14;;;;;;;16.70;10.70;;;1.50;99.90;;;;;;4976349;28;20633;-68
2023/01/18 09:52:53;;;;;;;11.60;10.40;;;1.50;99.90;;;;;;4984324;28;20192;-71
2023/01/18 09:55:37;;;;;;;20.10;12.70;;;1.60;99.90;;;;;;4987223;28;20247;-69
2023/01/18 09:58:41;;;;;;;10.73;8.90;;;1.70;99.90;;;;;;4981879;28;20185;-70
2023/01/18 10:01:20;;;;;;;14.20;9.37;;;1.70;99.90;;;;;;4981020;28;20700;-69
2023/01/18 10:03:49;;;;;;;12.43;9.87;;;1.60;99.90;;;;;;4978578;28;20189;-70
2023/01/18 10:06:26;;;;;;;14.07;11.33;;;1.70;99.90;;;;;;4983966;28;20188;-69
2023/01/18 10:09:05;;;;;;;16.30;11.67;;;1.90;99.90;;;;;;4980669;28;20188;-69
2023/01/18 10:11:43;;;;;;;18.73;12.03;;;2.00;99.90;;;;;;4979700;28;20235;-67
2023/01/18 10:14:21;;;;;;;15.63;9.43;;;2.10;99.90;;;;;;4980494;28;20192;-69
2023/01/18 10:16:56;;;;;;;16.73;11.87;;;2.20;99.90;;;;;;4986774;28;20688;-69
2023/01/18 10:19:28;;;;;;;15.43;9.70;;;2.10;99.90;;;;;;4981481;28;20191;-68
2023/01/18 10:22:12;;;;;;;11.97;9.37;;;2.00;99.90;;;;;;4982759;28;20649;-69
2023/01/18 10:25:01;;;;;;;17.13;11.50;;;2.00;99.90;;;;;;4991801;28;20319;-69
2023/01/18 10:27:59;;;;;;;21.70;9.03;;;2.20;99.90;;;;;;4982959;28;20637;-69
2023/01/18 10:30:31;;;;;;;12.73;9.50;;;2.30;99.90;;;;;;4974650;28;20255;-70
2023/01/18 10:33:12;;;;;;;16.77;10.90;;;2.20;99.90;;;;;;4988879;28;20192;-71
2023/01/18 10:35:46;;;;;;;16.37;11.03;;;2.10;99.90;;;;;;4983774;28;20230;-70
2023/01/18 10:38:22;;;;;;;14.97;10.03;;;2.10;99.90;;;;;;4979168;28;20196;-70
2023/01/18 10:40:56;;;;;;;16.10;10.50;;;2.30;99.90;;;;;;4980147;28;20172;-70
2023/01/18 10:43:24;;;;;;;16.00;9.23;;;2.30;99.90;;;;;;4980741;28;20178;-69
2023/01/18 10:45:52;;;;;;;16.47;9.40;;;2.40;99.90;;;;;;4985901;28;20192;-69
2023/01/18 10:48:26;;;;;;;14.43;9.33;;;2.50;99.90;;;;;;4971407;28;20220;-70
2023/01/18 10:51:24;;;;;;;12.23;9.37;;;2.50;99.90;;;;;;4977691;28;20250;-70
2023/01/18 10:53:50;;;;;;;9.47;8.57;;;2.60;99.90;;;;;;4979493;28;20220;-68
2023/01/18 10:56:23;;;;;;;11.00;9.57;;;2.70;99.90;;;;;;4974637;28;20243;-68
2023/01/18 10:58:59;;;;;;;10.63;7.87;;;2.80;99.90;;;;;;4972586;28;20275;-69
2023/01/18 11:01:32;;;;;;;13.73;8.57;;;2.90;99.90;;;;;;4979595;28;20262;-69
2023/01/18 11:04:19;;;;;;;10.97;6.93;;;2.90;99.90;;;;;;4987374;28;20191;-68
2023/01/18 11:06:47;;;;;;;9.33;7.97;;;3.10;99.90;;;;;;4972887;28;20266;-68
2023/01/18 11:09:53;;;;;;;15.23;7.83;;;3.10;99.90;;;;;;4978942;28;20188;-68
2023/01/18 11:15:13;;;;;;;9.87;7.50;;;3.20;99.90;;;;;;4976834;28;20293;-70
2023/01/18 11:17:49;;;;;;;11.07;6.97;;;3.20;99.90;;;;;;4987836;28;20223;-69
2023/01/18 11:20:36;;;;;;;8.87;6.40;;;3.10;99.90;;;;;;4975982;28;20188;-70
2023/01/18 11:23:02;;;;;;;8.80;6.03;;;3.10;99.90;;;;;;4972509;28;20203;-71
2023/01/18 11:25:38;;;;;;;8.50;6.37;;;3.20;99.90;;;;;;4988322;28;20599;-70
2023/01/18 11:28:12;;;;;;;9.30;6.73;;;3.20;99.90;;;;;;4981389;28;20184;-70
2023/01/18 11:31:06;;;;;;;7.17;6.03;;;3.20;99.90;;;;;;4973552;28;20180;-71
2023/01/18 11:33:32;;;;;;;12.17;6.67;;;3.30;99.90;;;;;;4973455;28;20193;-71
2023/01/18 11:36:00;;;;;;;13.30;5.63;;;3.40;99.90;;;;;;4973668;28;20209;-71
2023/01/18 11:38:32;;;;;;;7.30;5.07;;;3.60;99.90;;;;;;4973883;28;20251;-71
2023/01/18 11:41:11;;;;;;;8.57;4.57;;;3.60;99.90;;;;;;4985594;28;20585;-70
2023/01/18 11:43:38;;;;;;;6.33;5.70;;;3.50;99.90;;;;;;4974389;28;20657;-70
2023/01/18 11:46:09;;;;;;;8.30;6.27;;;3.50;99.90;;;;;;4977020;28;20247;-70
2023/01/18 11:48:43;;;;;;;8.50;6.13;;;3.50;99.90;;;;;;4977256;28;20207;-70
2023/01/18 11:51:55;;;;;;;7.53;6.33;;;3.60;99.90;;;;;;4979348;28;20254;-70
2023/01/18 11:54:54;;;;;;;6.20;5.40;;;3.70;99.90;;;;;;4957545;28;20203;-70
2023/01/18 11:57:19;;;;;;;7.63;5.00;;;3.70;99.90;;;;;;4981964;28;20220;-70
2023/01/18 11:59:46;;;;;;;6.53;5.07;;;3.80;99.90;;;;;;4975228;28;20201;-69
2023/01/18 12:02:37;;;;;;;8.17;4.93;;;3.80;99.90;;;;;;4977394;28;20196;-70
2023/01/18 12:05:06;;;;;;;10.00;4.53;;;3.90;99.90;;;;;;4972168;28;20280;-74
2023/01/18 12:07:31;;;;;;;6.23;4.50;;;4.00;99.90;;;;;;4976495;28;20188;-73
2023/01/18 12:10:00;;;;;;;10.47;5.13;;;4.20;99.90;;;;;;4984719;28;20242;-72
2023/01/18 12:12:44;;;;;;;5.33;4.37;;;4.20;99.90;;;;;;4984263;28;20184;-72
2023/01/18 12:15:44;;;;;;;6.77;5.87;;;4.20;99.90;;;;;;4984338;28;20172;-70
2023/01/18 12:18:29;;;;;;;7.83;5.07;;;4.30;99.90;;;;;;4977118;28;20264;-70
2023/01/18 12:21:10;;;;;;;8.63;6.00;;;4.10;99.90;;;;;;4978590;28;20198;-70
2023/01/18 12:24:07;;;;;;;8.60;4.73;;;4.20;99.90;;;;;;4981151;28;20318;-71
2023/01/18 12:26:48;;;;;;;9.93;5.63;;;4.30;99.90;;;;;;4985158;28;20185;-71
2023/01/18 12:29:42;;;;;;;7.47;5.17;;;4.40;99.90;;;;;;4977862;28;20195;-71
2023/01/18 12:32:13;;;;;;;6.87;4.80;;;4.40;99.90;;;;;;4982816;28;20176;-69
2023/01/18 12:34:59;;;;;;;6.60;4.37;;;4.30;99.90;;;;;;4983705;28;20630;-71
2023/01/18 12:37:54;;;;;;;7.03;4.80;;;4.30;99.90;;;;;;4978546;28;20259;-69
2023/01/18 12:40:43;;;;;;;6.70;5.10;;;4.50;99.90;;;;;;4987932;28;20180;-68
2023/01/18 12:43:10;;;;;;;9.73;6.13;;;4.50;99.90;;;;;;4976869;28;20594;-71
2023/01/18 12:45:53;;;;;;;6.53;4.50;;;4.50;99.90;;;;;;4977603;28;20190;-71
2023/01/18 12:48:30;;;;;;;9.93;4.73;;;4.60;99.90;;;;;;4982516;28;20662;-71
2023/01/18 12:50:59;;;;;;;10.70;5.73;;;4.50;99.90;;;;;;4984214;28;20187;-71
2023/01/18 12:53:40;;;;;;;7.20;4.57;;;4.50;99.90;;;;;;4983406;28;20663;-71
2023/01/18 12:56:34;;;;;;;5.23;4.73;;;4.50;99.90;;;;;;4985413;28;20220;-71
2023/01/18 12:59:24;;;;;;;5.90;4.80;;;4.60;99.90;;;;;;4975783;28;20271;-70
2023/01/18 13:02:11;;;;;;;7.17;5.23;;;4.60;99.90;;;;;;4971691;28;20232;-71
2023/01/18 13:04:51;;;;;;;9.20;5.30;;;4.60;99.90;;;;;;4990977;28;20210;-71
2023/01/18 13:07:21;;;;;;;12.27;4.60;;;4.60;99.90;;;;;;4976041;28;20199;-70
2023/01/18 13:09:49;;;;;;;10.03;4.50;;;4.50;99.90;;;;;;4976717;28;20185;-71
2023/01/18 13:12:16;;;;;;;9.03;5.40;;;4.50;99.90;;;;;;4976195;28;20196;-71
2023/01/18 13:14:53;;;;;;;8.93;5.50;;;4.70;99.90;;;;;;4988938;28;20192;-71
2023/01/18 13:17:42;;;;;;;8.60;5.50;;;4.60;99.90;;;;;;4984218;28;20191;-71
2023/01/18 13:20:08;;;;;;;10.47;6.33;;;4.70;99.90;;;;;;4982102;28;20226;-70
2023/01/18 13:23:17;;;;;;;10.73;6.80;;;4.70;99.90;;;;;;4976243;28;20587;-70
2023/01/18 13:25:52;;;;;;;9.47;6.10;;;4.70;99.90;;;;;;4983564;28;20246;-71
2023/01/18 13:28:20;;;;;;;7.30;5.30;;;4.90;99.90;;;;;;4986011;28;20180;-70
2023/01/18 13:31:03;;;;;;;9.97;5.53;;;4.80;99.90;;;;;;4986065;28;20267;-70
2023/01/18 13:33:34;;;;;;;7.57;5.43;;;4.90;99.90;;;;;;4976646;28;20180;-70
2023/01/18 13:36:16;;;;;;;9.10;5.17;;;4.90;99.90;;;;;;4983859;28;20224;-71
2023/01/18 13:39:02;;;;;;;8.33;5.53;;;4.80;99.90;;;;;;4987618;28;20180;-72
2023/01/18 13:41:30;;;;;;;10.83;5.73;;;4.70;99.90;;;;;;4975062;28;20173;-71